Time;durP1;ratioP1;P1;durP2;ratioP2;P2;SDS_P1;SDS_P2;PMS_P1;PMS_P2;Temp;Humidity;BMP_temperature;BMP_pressure;BME280_temperature;BME280_humidity;BME280_pressure;Samples;Min_cycle;Max_cycle;Signal;HPM_P1;HPM_P2
2023/03/01 00:00:06;;;;;;;13.57;9.37;;;;;;;;;;5018849;28;20226;-90
2023/03/01 00:02:33;;;;;;;13.13;8.20;;;;;;;;;;5018283;28;20204;-90
2023/03/01 00:05:02;;;;;;;12.27;8.43;;;;;;;;;;5024389;28;20552;-90
2023/03/01 00:07:29;;;;;;;14.80;9.00;;;;;;;;;;5025904;28;20282;-90
2023/03/01 00:09:56;;;;;;;12.40;8.93;;;;;;;;;;5038351;28;20241;-90
2023/03/01 00:12:23;;;;;;;14.13;8.83;;;;;;;;;;5038005;28;20211;-90
2023/03/01 00:14:50;;;;;;;11.67;8.83;;;;;;;;;;5037168;28;20234;-90
2023/03/01 00:17:17;;;;;;;12.10;8.93;;;;;;;;;;5032648;28;20211;-90
2023/03/01 00:19:44;;;;;;;12.87;9.33;;;;;;;;;;5017428;28;20235;-90
2023/03/01 00:22:13;;;;;;;11.60;9.07;;;;;;;;;;5017731;28;20207;-90
2023/03/01 00:24:40;;;;;;;13.57;9.83;;;;;;;;;;5017687;28;20236;-90
2023/03/01 00:27:07;;;;;;;11.13;8.30;;;;;;;;;;5021127;28;20199;-90
2023/03/01 00:29:34;;;;;;;13.07;9.13;;;;;;;;;;5037743;28;20230;-90
2023/03/01 00:32:01;;;;;;;12.03;8.50;;;;;;;;;;5037456;28;20211;-90
2023/03/01 00:34:28;;;;;;;13.50;8.70;;;;;;;;;;5037252;28;20241;-89
2023/03/01 00:37:01;;;;;;;12.90;8.87;;;;;;;;;;5037988;28;20203;-90
2023/03/01 00:39:29;;;;;;;12.83;9.10;;;;;;;;;;5037107;28;20262;-89
2023/03/01 00:41:57;;;;;;;12.63;8.20;;;;;;;;;;5036532;28;20234;-90
2023/03/01 00:44:24;;;;;;;10.13;8.80;;;;;;;;;;5033477;28;20267;-89
2023/03/01 00:46:51;;;;;;;13.53;8.53;;;;;;;;;;5017392;28;20215;-88
2023/03/01 00:49:18;;;;;;;12.30;8.57;;;;;;;;;;5016401;28;20235;-89
2023/03/01 00:51:45;;;;;;;11.43;9.00;;;;;;;;;;5016742;28;20240;-89
2023/03/01 00:54:12;;;;;;;12.13;9.03;;;;;;;;;;5018380;28;20242;-88
2023/03/01 00:56:40;;;;;;;12.83;8.93;;;;;;;;;;5037007;28;20206;-88
2023/03/01 00:59:07;;;;;;;12.37;7.80;;;;;;;;;;5036769;28;20231;-89
2023/03/01 01:01:34;;;;;;;8.50;7.50;;;;;;;;;;5037093;28;20231;-88
2023/03/01 01:04:02;;;;;;;12.33;8.17;;;;;;;;;;5036928;28;20230;-89
2023/03/01 01:06:30;;;;;;;17.23;8.87;;;;;;;;;;5038648;28;20222;-89
2023/03/01 01:08:58;;;;;;;12.03;8.90;;;;;;;;;;5054383;28;20229;-89
2023/03/01 01:11:26;;;;;;;13.90;8.73;;;;;;;;;;5053231;28;20223;-89
2023/03/01 01:13:54;;;;;;;13.13;9.13;;;;;;;;;;5051380;28;20242;-89
2023/03/01 01:16:22;;;;;;;13.70;9.17;;;;;;;;;;5052590;28;20206;-90
2023/03/01 01:18:49;;;;;;;14.33;8.53;;;;;;;;;;5051918;28;20234;-89
2023/03/01 01:21:17;;;;;;;11.37;8.63;;;;;;;;;;5040953;28;20260;-89
2023/03/01 01:23:45;;;;;;;12.20;9.17;;;;;;;;;;5026028;28;20231;-89
2023/03/01 01:26:13;;;;;;;13.10;8.57;;;;;;;;;;5017575;28;20195;-89
2023/03/01 01:28:40;;;;;;;12.77;9.30;;;;;;;;;;5017916;28;20229;-89
2023/03/01 01:31:09;;;;;;;11.30;8.50;;;;;;;;;;5018735;28;20869;-89
2023/03/01 01:33:37;;;;;;;12.43;8.43;;;;;;;;;;5017923;28;20235;-89
2023/03/01 01:36:04;;;;;;;11.37;8.00;;;;;;;;;;5017156;28;20655;-89
2023/03/01 01:38:31;;;;;;;12.10;8.67;;;;;;;;;;5017387;28;20235;-89
2023/03/01 01:40:58;;;;;;;12.33;8.60;;;;;;;;;;5031201;28;20760;-89
2023/03/01 01:43:29;;;;;;;15.10;9.27;;;;;;;;;;5035998;28;20852;-89
2023/03/01 01:45:58;;;;;;;12.73;8.37;;;;;;;;;;5036093;28;20202;-89
2023/03/01 01:48:40;;;;;;;15.23;9.17;;;;;;;;;;5035864;28;20227;-90
2023/03/01 01:51:08;;;;;;;12.47;9.40;;;;;;;;;;5036108;28;20242;-90
2023/03/01 01:53:36;;;;;;;14.33;9.00;;;;;;;;;;5034706;28;20239;-90
2023/03/01 01:56:03;;;;;;;13.23;9.63;;;;;;;;;;5035556;28;20660;-89
2023/03/01 01:58:31;;;;;;;12.40;8.83;;;;;;;;;;5035178;28;20234;-90
2023/03/01 02:01:00;;;;;;;13.93;10.00;;;;;;;;;;5035891;28;20231;-90
2023/03/01 02:03:32;;;;;;;13.77;9.90;;;;;;;;;;5035629;28;20286;-89
2023/03/01 02:06:03;;;;;;;13.00;9.10;;;;;;;;;;5034913;28;20213;-90
2023/03/01 02:08:30;;;;;;;12.87;10.10;;;;;;;;;;5035142;28;20234;-89
2023/03/01 02:10:59;;;;;;;15.30;9.33;;;;;;;;;;5035569;28;20245;-89
2023/03/01 02:13:27;;;;;;;15.00;9.10;;;;;;;;;;5034804;28;20234;-89
2023/03/01 02:15:54;;;;;;;12.33;8.93;;;;;;;;;;5035233;28;20218;-89
2023/03/01 02:18:23;;;;;;;11.30;8.93;;;;;;;;;;5034941;28;20235;-89
2023/03/01 02:20:59;;;;;;;13.10;9.43;;;;;;;;;;5034957;28;20235;-89
2023/03/01 02:23:26;;;;;;;11.87;8.80;;;;;;;;;;5034939;28;20246;-89
2023/03/01 02:26:27;;;;;;;15.03;9.17;;;;;;;;;;5034848;28;20707;-89
2023/03/01 02:28:56;;;;;;;11.97;8.97;;;;;;;;;;5034089;28;20236;-89
2023/03/01 02:34:09;;;;;;;13.00;9.60;;;;;;;;;;5034135;28;20246;-89
2023/03/01 02:36:38;;;;;;;15.90;9.60;;;;;;;;;;5034611;28;20199;-89
2023/03/01 02:39:07;;;;;;;15.90;9.93;;;;;;;;;;5034703;28;20698;-89
2023/03/01 02:41:36;;;;;;;15.97;10.40;;;;;;;;;;5035439;28;20234;-89
2023/03/01 02:44:06;;;;;;;15.60;9.67;;;;;;;;;;5036511;28;20234;-89
2023/03/01 02:46:33;;;;;;;12.10;9.20;;;;;;;;;;5039005;28;20202;-89
2023/03/01 02:49:00;;;;;;;14.67;9.47;;;;;;;;;;5036588;28;20262;-89
2023/03/01 02:51:31;;;;;;;14.73;9.47;;;;;;;;;;5036461;28;20224;-89
2023/03/01 02:54:07;;;;;;;13.63;9.50;;;;;;;;;;5034906;28;20239;-90
2023/03/01 02:56:34;;;;;;;13.40;9.43;;;;;;;;;;5034648;28;20217;-90
2023/03/01 02:59:02;;;;;;;12.77;9.30;;;;;;;;;;5034247;28;20235;-90
2023/03/01 03:01:36;;;;;;;12.33;9.17;;;;;;;;;;5035368;28;20227;-89
2023/03/01 03:04:03;;;;;;;13.17;9.23;;;;;;;;;;5033386;28;20231;-90
2023/03/01 03:06:30;;;;;;;13.23;9.87;;;;;;;;;;5034237;28;20655;-90
2023/03/01 03:08:57;;;;;;;13.03;9.40;;;;;;;;;;5033811;28;20265;-90
2023/03/01 03:11:25;;;;;;;15.47;9.87;;;;;;;;;;5034136;28;20227;-90
2023/03/01 03:13:52;;;;;;;15.80;10.10;;;;;;;;;;5034242;28;20235;-90
2023/03/01 03:16:19;;;;;;;12.20;8.73;;;;;;;;;;5034076;28;20218;-90
2023/03/01 03:18:48;;;;;;;14.97;8.73;;;;;;;;;;5033279;28;20246;-90
2023/03/01 03:21:16;;;;;;;14.60;9.93;;;;;;;;;;5033963;28;20238;-90
2023/03/01 03:23:43;;;;;;;16.03;9.50;;;;;;;;;;5033465;28;20253;-90
2023/03/01 03:26:13;;;;;;;12.80;9.33;;;;;;;;;;5034030;28;20229;-90
2023/03/01 03:28:40;;;;;;;15.07;9.43;;;;;;;;;;5033566;28;20234;-90
2023/03/01 03:31:07;;;;;;;12.73;9.13;;;;;;;;;;5033772;28;20272;-90
2023/03/01 03:33:34;;;;;;;13.43;9.93;;;;;;;;;;5033121;28;20235;-90
2023/03/01 03:36:03;;;;;;;12.10;9.27;;;;;;;;;;5033568;28;20207;-90
2023/03/01 03:38:30;;;;;;;15.10;9.47;;;;;;;;;;5033374;28;20234;-90
2023/03/01 03:41:02;;;;;;;15.80;9.80;;;;;;;;;;5033608;28;20219;-90
2023/03/01 03:43:29;;;;;;;16.37;10.33;;;;;;;;;;5033671;28;20231;-90
2023/03/01 03:45:57;;;;;;;15.17;9.53;;;;;;;;;;5034008;28;20211;-90
2023/03/01 03:48:25;;;;;;;16.03;10.53;;;;;;;;;;5033219;28;20235;-89
2023/03/01 03:50:53;;;;;;;15.37;10.40;;;;;;;;;;5033402;28;20215;-90
2023/03/01 03:53:22;;;;;;;15.13;10.57;;;;;;;;;;5033346;28;20699;-90
2023/03/01 03:55:51;;;;;;;15.47;10.33;;;;;;;;;;5034087;28;20214;-90
2023/03/01 03:58:19;;;;;;;13.97;9.37;;;;;;;;;;5033859;28;20242;-90
2023/03/01 04:00:47;;;;;;;14.07;9.93;;;;;;;;;;5034434;28;20273;-90
2023/03/01 04:03:15;;;;;;;12.97;9.47;;;;;;;;;;5034454;28;20237;-90
2023/03/01 04:05:43;;;;;;;14.93;9.90;;;;;;;;;;5034188;28;20203;-90
2023/03/01 04:08:10;;;;;;;16.03;9.40;;;;;;;;;;5034149;28;20261;-90
2023/03/01 04:10:40;;;;;;;14.80;9.77;;;;;;;;;;5034494;28;20226;-90
2023/03/01 04:13:07;;;;;;;16.57;9.63;;;;;;;;;;5033977;28;20234;-90
2023/03/01 04:15:35;;;;;;;14.53;10.13;;;;;;;;;;5036122;28;20240;-90
2023/03/01 04:18:02;;;;;;;15.70;10.67;;;;;;;;;;5037330;28;20231;-91
2023/03/01 04:20:33;;;;;;;16.93;10.80;;;;;;;;;;5037409;28;20292;-91
2023/03/01 04:23:10;;;;;;;15.10;9.93;;;;;;;;;;5037239;28;20343;-90
2023/03/01 04:25:38;;;;;;;14.37;11.03;;;;;;;;;;5037581;28;20194;-91
2023/03/01 04:28:05;;;;;;;13.07;9.47;;;;;;;;;;5036701;28;20240;-90
2023/03/01 04:30:35;;;;;;;16.70;10.27;;;;;;;;;;5037864;28;20273;-90
2023/03/01 04:33:02;;;;;;;16.87;9.80;;;;;;;;;;5036740;28;20317;-91
2023/03/01 04:35:29;;;;;;;14.47;9.80;;;;;;;;;;5037858;28;20254;-91
2023/03/01 04:37:56;;;;;;;14.90;9.60;;;;;;;;;;5037512;28;20230;-90
2023/03/01 04:40:23;;;;;;;15.83;10.80;;;;;;;;;;5036974;28;20231;-91
2023/03/01 04:42:52;;;;;;;14.30;11.17;;;;;;;;;;5036537;28;20687;-90
2023/03/01 04:45:19;;;;;;;14.17;9.70;;;;;;;;;;5038126;28;20203;-91
2023/03/01 04:47:47;;;;;;;15.13;10.23;;;;;;;;;;5037301;28;20921;-90
2023/03/01 04:50:15;;;;;;;14.03;10.17;;;;;;;;;;5038487;28;20230;-90
2023/03/01 04:52:43;;;;;;;15.70;10.37;;;;;;;;;;5037988;28;20206;-90
2023/03/01 04:55:10;;;;;;;15.43;11.07;;;;;;;;;;5037979;28;20236;-90
2023/03/01 04:57:38;;;;;;;13.33;10.37;;;;;;;;;;5036943;28;20194;-90
2023/03/01 05:00:19;;;;;;;13.57;10.27;;;;;;;;;;5037507;28;20237;-90
2023/03/01 05:02:47;;;;;;;15.93;10.43;;;;;;;;;;5036017;28;20292;-90
2023/03/01 05:05:15;;;;;;;13.93;10.30;;;;;;;;;;5037100;28;20194;-90
2023/03/01 05:07:42;;;;;;;18.27;11.00;;;;;;;;;;5035700;28;20203;-91
2023/03/01 05:10:09;;;;;;;15.73;10.13;;;;;;;;;;5037286;28;20236;-90
2023/03/01 05:12:37;;;;;;;15.93;10.80;;;;;;;;;;5036303;28;20207;-90
2023/03/01 05:15:06;;;;;;;13.80;10.70;;;;;;;;;;5037286;28;20531;-90
2023/03/01 05:17:35;;;;;;;14.70;10.47;;;;;;;;;;5035694;28;20297;-90
2023/03/01 05:20:03;;;;;;;14.13;10.33;;;;;;;;;;5036341;28;20231;-90
2023/03/01 05:22:30;;;;;;;16.67;11.30;;;;;;;;;;5035788;28;20238;-90
2023/03/01 05:24:57;;;;;;;15.60;10.83;;;;;;;;;;5016225;28;20204;-90
2023/03/01 05:27:25;;;;;;;16.67;10.67;;;;;;;;;;5015411;28;20216;-90
2023/03/01 05:29:52;;;;;;;15.13;10.50;;;;;;;;;;5015450;28;20227;-90
2023/03/01 05:32:19;;;;;;;18.27;10.77;;;;;;;;;;5015776;28;20192;-90
2023/03/01 05:34:47;;;;;;;18.07;10.33;;;;;;;;;;5015544;28;20246;-90
2023/03/01 05:37:14;;;;;;;14.77;10.37;;;;;;;;;;5015860;28;20207;-90
2023/03/01 05:39:41;;;;;;;18.20;10.47;;;;;;;;;;5014839;28;20239;-90
2023/03/01 05:42:11;;;;;;;21.37;10.57;;;;;;;;;;5016648;28;20200;-90
2023/03/01 05:44:39;;;;;;;17.03;10.47;;;;;;;;;;5015903;28;20234;-90
2023/03/01 05:47:06;;;;;;;17.53;11.07;;;;;;;;;;5016023;28;20211;-90
2023/03/01 05:49:33;;;;;;;15.57;10.10;;;;;;;;;;5028558;28;20242;-90
2023/03/01 05:52:02;;;;;;;17.10;11.10;;;;;;;;;;5035925;28;20230;-90
2023/03/01 05:54:29;;;;;;;14.10;10.33;;;;;;;;;;5034563;28;20246;-90
2023/03/01 05:56:56;;;;;;;17.47;11.40;;;;;;;;;;5034731;28;20226;-91
2023/03/01 05:59:23;;;;;;;15.90;10.80;;;;;;;;;;5024872;28;20663;-90
2023/03/01 06:01:50;;;;;;;17.30;11.90;;;;;;;;;;5016372;28;20593;-91
2023/03/01 06:04:17;;;;;;;16.03;10.97;;;;;;;;;;5015322;28;20730;-91
2023/03/01 06:06:45;;;;;;;18.77;11.50;;;;;;;;;;5027596;28;20660;-90
2023/03/01 06:09:14;;;;;;;20.47;11.83;;;;;;;;;;5034614;28;20731;-89
2023/03/01 06:11:41;;;;;;;18.70;11.33;;;;;;;;;;5034265;28;20234;-88
2023/03/01 06:14:10;;;;;;;21.23;10.83;;;;;;;;;;5032421;28;20244;-88
2023/03/01 06:16:37;;;;;;;16.63;11.30;;;;;;;;;;5034544;28;20253;-88
2023/03/01 06:19:04;;;;;;;18.73;11.80;;;;;;;;;;5034066;28;20241;-92
2023/03/01 06:21:31;;;;;;;17.77;12.23;;;;;;;;;;5034484;28;20223;-88
2023/03/01 06:24:05;;;;;;;16.40;10.57;;;;;;;;;;5033770;28;20226;-88
2023/03/01 06:26:49;;;;;;;20.00;11.57;;;;;;;;;;5034399;28;20936;-88
2023/03/01 06:29:16;;;;;;;16.90;10.83;;;;;;;;;;5033861;28;20238;-87
2023/03/01 06:31:43;;;;;;;17.13;11.33;;;;;;;;;;5033818;28;20329;-86
2023/03/01 06:34:13;;;;;;;19.57;11.30;;;;;;;;;;5033021;28;20227;-85
2023/03/01 06:36:40;;;;;;;17.03;11.40;;;;;;;;;;5033425;28;20250;-86
2023/03/01 06:39:07;;;;;;;19.30;11.93;;;;;;;;;;5032749;28;20243;-85
2023/03/01 06:41:34;;;;;;;17.47;11.13;;;;;;;;;;5044514;28;20688;-85
2023/03/01 06:44:07;;;;;;;17.70;11.30;;;;;;;;;;5036219;28;20237;-86
2023/03/01 06:46:34;;;;;;;17.43;11.77;;;;;;;;;;5030771;28;20187;-87
2023/03/01 06:49:04;;;;;;;16.93;11.17;;;;;;;;;;5022188;28;20238;-87
2023/03/01 06:51:32;;;;;;;17.57;12.30;;;;;;;;;;5014594;28;20285;-88
2023/03/01 06:53:59;;;;;;;18.87;12.13;;;;;;;;;;5023826;28;20710;-87
2023/03/01 06:56:26;;;;;;;16.13;10.73;;;;;;;;;;5015144;28;20235;-87
2023/03/01 06:58:53;;;;;;;18.03;12.13;;;;;;;;;;5013684;28;20246;-86
2023/03/01 07:01:22;;;;;;;18.73;12.77;;;;;;;;;;5012997;28;20227;-85
2023/03/01 07:03:49;;;;;;;19.73;11.63;;;;;;;;;;5012650;28;20239;-85
2023/03/01 07:06:17;;;;;;;20.67;11.63;;;;;;;;;;5013729;28;20207;-85
2023/03/01 07:08:44;;;;;;;19.13;13.17;;;;;;;;;;5010547;28;21122;-86
2023/03/01 07:11:11;;;;;;;16.03;12.07;;;;;;;;;;5031800;28;20238;-85
2023/03/01 07:13:38;;;;;;;21.50;12.43;;;;;;;;;;5031344;28;20232;-86
2023/03/01 07:16:09;;;;;;;19.00;12.57;;;;;;;;;;5032760;28;20232;-85
2023/03/01 07:18:37;;;;;;;16.47;11.00;;;;;;;;;;5032462;28;20250;-84
2023/03/01 07:21:08;;;;;;;17.70;12.63;;;;;;;;;;5032041;28;20231;-84
2023/03/01 07:23:36;;;;;;;24.00;13.43;;;;;;;;;;5032027;28;20237;-85
2023/03/01 07:26:03;;;;;;;17.97;13.13;;;;;;;;;;5032502;28;20204;-85
2023/03/01 07:28:30;;;;;;;19.93;12.30;;;;;;;;;;5032093;28;20814;-85
2023/03/01 07:31:02;;;;;;;19.30;12.40;;;;;;;;;;5032493;28;20273;-86
2023/03/01 07:33:29;;;;;;;19.33;11.80;;;;;;;;;;5032431;28;20228;-87
2023/03/01 07:36:05;;;;;;;17.20;11.23;;;;;;;;;;5033198;28;20318;-86
2023/03/01 07:38:32;;;;;;;18.43;11.30;;;;;;;;;;5032096;28;20239;-86
2023/03/01 07:41:00;;;;;;;16.33;11.10;;;;;;;;;;5032401;28;20231;-86
2023/03/01 07:43:27;;;;;;;23.23;11.20;;;;;;;;;;5032064;28;20266;-85
2023/03/01 07:45:54;;;;;;;19.73;11.70;;;;;;;;;;5032936;28;20703;-86
2023/03/01 07:48:21;;;;;;;18.00;12.20;;;;;;;;;;5032171;28;20246;-85
2023/03/01 07:50:48;;;;;;;13.47;9.77;;;;;;;;;;5035134;28;20229;-86
2023/03/01 07:53:16;;;;;;;13.60;9.67;;;;;;;;;;5036239;28;20650;-86
2023/03/01 07:55:43;;;;;;;15.80;10.00;;;;;;;;;;5036674;28;20238;-86
2023/03/01 07:58:10;;;;;;;15.80;11.17;;;;;;;;;;5036165;28;20241;-86
2023/03/01 08:00:37;;;;;;;14.67;11.17;;;;;;;;;;5040244;28;20224;-86
2023/03/01 08:03:04;;;;;;;15.43;10.90;;;;;;;;;;5037495;28;20240;-86
2023/03/01 08:05:37;;;;;;;16.13;10.57;;;;;;;;;;5028508;28;20207;-85
2023/03/01 08:08:06;;;;;;;18.37;11.47;;;;;;;;;;5035694;28;20233;-85
2023/03/01 08:10:34;;;;;;;21.50;11.13;;;;;;;;;;5036118;28;20233;-85
2023/03/01 08:13:01;;;;;;;18.10;11.60;;;;;;;;;;5035132;28;20234;-87
2023/03/01 08:15:28;;;;;;;14.83;10.43;;;;;;;;;;5035881;28;20239;-86
2023/03/01 08:17:55;;;;;;;15.30;9.90;;;;;;;;;;5035354;28;20698;-85
2023/03/01 08:20:23;;;;;;;14.57;9.47;;;;;;;;;;5035552;28;20233;-85
2023/03/01 08:22:50;;;;;;;16.00;10.53;;;;;;;;;;5035171;28;20234;-86
2023/03/01 08:25:17;;;;;;;10.43;8.03;;;;;;;;;;5035284;28;20210;-85
2023/03/01 08:27:45;;;;;;;19.53;11.17;;;;;;;;;;5035113;28;20217;-83
2023/03/01 08:30:13;;;;;;;18.33;9.87;;;;;;;;;;5035416;28;20231;-86
2023/03/01 08:32:40;;;;;;;16.67;9.93;;;;;;;;;;5035112;28;20210;-86
2023/03/01 08:35:07;;;;;;;15.63;10.17;;;;;;;;;;5027950;28;20244;-84
2023/03/01 08:37:34;;;;;;;15.33;10.10;;;;;;;;;;5025729;28;20203;-86
2023/03/01 08:40:03;;;;;;;18.57;10.83;;;;;;;;;;5035947;28;20229;-88
2023/03/01 08:42:30;;;;;;;14.97;10.00;;;;;;;;;;5035249;28;20294;-84
2023/03/01 08:44:59;;;;;;;17.63;11.07;;;;;;;;;;5035130;28;20202;-84
2023/03/01 08:47:26;;;;;;;11.93;8.63;;;;;;;;;;5034499;28;20199;-86
2023/03/01 08:49:53;;;;;;;14.87;11.23;;;;;;;;;;5035893;28;20213;-86
2023/03/01 08:52:20;;;;;;;16.50;10.60;;;;;;;;;;5035565;28;20389;-86
2023/03/01 08:54:48;;;;;;;17.07;11.07;;;;;;;;;;5035359;28;20241;-87
2023/03/01 08:57:16;;;;;;;15.60;10.80;;;;;;;;;;5036001;28;20230;-87
2023/03/01 08:59:43;;;;;;;15.07;11.73;;;;;;;;;;5034924;28;20317;-86
2023/03/01 09:02:14;;;;;;;14.10;9.37;;;;;;;;;;5033186;28;20669;-82
2023/03/01 09:04:41;;;;;;;16.67;10.90;;;;;;;;;;5033611;28;20241;-83
2023/03/01 09:07:08;;;;;;;10.03;8.77;;;;;;;;;;5034171;28;20203;-83
2023/03/01 09:09:36;;;;;;;12.73;9.80;;;;;;;;;;5033774;28;20233;-84
2023/03/01 09:12:04;;;;;;;18.53;11.87;;;;;;;;;;5034183;28;20230;-85
2023/03/01 09:14:31;;;;;;;13.63;10.50;;;;;;;;;;5033389;28;20230;-83
2023/03/01 09:16:58;;;;;;;17.53;11.00;;;;;;;;;;5033334;28;20248;-83
2023/03/01 09:19:26;;;;;;;18.00;11.03;;;;;;;;;;5033377;28;20239;-84
2023/03/01 09:21:55;;;;;;;23.00;12.87;;;;;;;;;;5033567;28;20606;-82
2023/03/01 09:24:23;;;;;;;16.00;10.63;;;;;;;;;;5033009;28;20318;-84
2023/03/01 09:26:50;;;;;;;18.07;11.60;;;;;;;;;;5030999;28;20216;-83
2023/03/01 09:29:17;;;;;;;17.40;11.07;;;;;;;;;;5032998;28;20239;-84
2023/03/01 09:31:46;;;;;;;17.80;11.50;;;;;;;;;;5033580;28;20234;-84
2023/03/01 09:34:15;;;;;;;16.70;11.60;;;;;;;;;;5033105;28;20242;-84
2023/03/01 09:36:43;;;;;;;19.93;12.00;;;;;;;;;;5033959;28;20310;-84
2023/03/01 09:39:10;;;;;;;19.00;12.27;;;;;;;;;;5032874;28;20242;-84
2023/03/01 09:41:46;;;;;;;15.33;11.40;;;;;;;;;;5033449;28;20241;-84
2023/03/01 09:44:17;;;;;;;16.30;11.60;;;;;;;;;;5013109;28;20656;-84
2023/03/01 09:46:45;;;;;;;13.70;10.03;;;;;;;;;;5014014;28;20569;-83
2023/03/01 09:49:16;;;;;;;14.57;9.70;;;;;;;;;;5012846;28;20262;-84
2023/03/01 09:51:49;;;;;;;14.07;10.37;;;;;;;;;;5013304;28;20231;-83
2023/03/01 09:54:16;;;;;;;18.60;12.03;;;;;;;;;;5031714;28;20264;-81
2023/03/01 09:56:47;;;;;;;19.37;11.73;;;;;;;;;;5033106;28;20592;-82
2023/03/01 09:59:20;;;;;;;16.43;11.60;;;;;;;;;;5032475;28;20227;-84
2023/03/01 10:01:52;;;;;;;16.13;11.03;;;;;;;;;;5033607;28;20700;-85
2023/03/01 10:04:27;;;;;;;18.47;10.13;;;;;;;;;;5032135;28;20262;-84
2023/03/01 10:06:59;;;;;;;17.47;9.87;;;;;;;;;;5034517;28;20204;-90
2023/03/01 10:09:27;;;;;;;15.80;9.90;;;;;;;;;;5034055;28;20242;-87
2023/03/01 10:11:55;;;;;;;18.67;12.00;;;;;;;;;;5032738;28;20229;-82
2023/03/01 10:14:31;;;;;;;16.67;11.80;;;;;;;;;;5031232;28;20590;-84
2023/03/01 10:17:02;;;;;;;16.67;11.23;;;;;;;;;;5032487;28;20228;-83
2023/03/01 10:19:32;;;;;;;17.53;11.47;;;;;;;;;;5032145;28;20242;-83
2023/03/01 10:22:04;;;;;;;14.10;10.23;;;;;;;;;;5032903;28;20222;-86
2023/03/01 10:24:33;;;;;;;17.17;12.10;;;;;;;;;;5031265;28;20230;-82
2023/03/01 10:27:02;;;;;;;15.77;10.37;;;;;;;;;;5032326;28;20201;-82
2023/03/01 10:29:32;;;;;;;16.00;10.97;;;;;;;;;;5031818;28;20236;-82
2023/03/01 10:32:00;;;;;;;13.83;10.80;;;;;;;;;;5032095;28;20233;-82
2023/03/01 10:34:29;;;;;;;14.27;10.37;;;;;;;;;;5031203;28;20241;-84
2023/03/01 10:36:58;;;;;;;14.73;10.93;;;;;;;;;;5031898;28;20222;-82
2023/03/01 10:39:27;;;;;;;16.63;10.80;;;;;;;;;;5031399;28;20237;-82
2023/03/01 10:42:02;;;;;;;15.63;9.93;;;;;;;;;;5032189;28;20249;-82
2023/03/01 10:44:40;;;;;;;13.70;9.50;;;;;;;;;;5031110;28;20230;-82
2023/03/01 10:47:13;;;;;;;10.77;7.53;;;;;;;;;;5032024;28;20194;-82
2023/03/01 10:49:40;;;;;;;14.67;10.90;;;;;;;;;;5031189;28;20235;-82
2023/03/01 10:52:17;;;;;;;14.53;10.57;;;;;;;;;;5031809;28;20218;-83
2023/03/01 10:54:52;;;;;;;13.90;9.63;;;;;;;;;;5031170;28;20325;-83
2023/03/01 10:57:28;;;;;;;14.43;9.90;;;;;;;;;;5032045;28;20214;-82
2023/03/01 11:00:04;;;;;;;15.70;9.87;;;;;;;;;;5031615;28;20695;-82
2023/03/01 11:02:33;;;;;;;14.33;10.27;;;;;;;;;;5031017;28;20195;-82
2023/03/01 11:05:02;;;;;;;14.10;9.97;;;;;;;;;;5031284;28;20249;-82
2023/03/01 11:07:30;;;;;;;13.03;9.23;;;;;;;;;;5030920;28;20253;-83
2023/03/01 11:09:58;;;;;;;13.43;9.97;;;;;;;;;;5031575;28;20235;-82
2023/03/01 11:12:26;;;;;;;14.10;9.53;;;;;;;;;;5031156;28;20598;-83
2023/03/01 11:14:55;;;;;;;14.83;9.67;;;;;;;;;;5031071;28;20225;-84
2023/03/01 11:17:23;;;;;;;12.47;9.80;;;;;;;;;;5031549;28;20223;-84
2023/03/01 11:20:06;;;;;;;12.93;8.93;;;;;;;;;;5030936;28;20284;-83
2023/03/01 11:22:34;;;;;;;13.13;9.40;;;;;;;;;;5023174;28;20206;-84
2023/03/01 11:25:03;;;;;;;14.93;10.50;;;;;;;;;;5030638;28;20671;-83
2023/03/01 11:27:33;;;;;;;13.30;9.37;;;;;;;;;;5016325;28;20651;-84
2023/03/01 11:30:01;;;;;;;23.40;15.30;;;;;;;;;;5031397;28;20238;-82
2023/03/01 11:32:33;;;;;;;17.23;9.57;;;;;;;;;;5030421;28;20962;-83
2023/03/01 11:35:03;;;;;;;14.33;9.80;;;;;;;;;;5031402;28;20206;-84
2023/03/01 11:37:35;;;;;;;12.57;8.37;;;;;;;;;;5030733;28;20226;-85
2023/03/01 11:40:09;;;;;;;13.93;9.00;;;;;;;;;;5031217;28;20638;-82
2023/03/01 11:42:42;;;;;;;13.57;9.37;;;;;;;;;;5030619;28;20206;-83
2023/03/01 11:45:11;;;;;;;11.37;9.60;;;;;;;;;;5031159;28;20694;-86
2023/03/01 11:47:50;;;;;;;16.00;11.93;;;;;;;;;;5031902;28;20584;-87
2023/03/01 11:50:23;;;;;;;13.57;9.40;;;;;;;;;;5032369;28;20234;-84
2023/03/01 11:52:55;;;;;;;9.90;8.50;;;;;;;;;;5031456;28;20737;-85
2023/03/01 11:55:31;;;;;;;12.77;8.40;;;;;;;;;;5031672;28;20694;-84
2023/03/01 11:58:07;;;;;;;14.63;9.33;;;;;;;;;;5031810;28;20242;-85
2023/03/01 12:00:42;;;;;;;9.53;8.03;;;;;;;;;;5031304;28;20649;-84
2023/03/01 12:03:17;;;;;;;11.60;8.13;;;;;;;;;;5030709;28;20237;-84
2023/03/01 12:06:03;;;;;;;10.60;8.20;;;;;;;;;;5030885;28;20835;-84
2023/03/01 12:08:34;;;;;;;10.90;7.83;;;;;;;;;;5030572;28;20234;-85
2023/03/01 12:11:06;;;;;;;12.03;7.43;;;;;;;;;;5031485;28;20222;-84
2023/03/01 12:13:47;;;;;;;7.87;7.07;;;;;;;;;;5030177;28;20237;-84
2023/03/01 12:16:21;;;;;;;12.27;9.53;;;;;;;;;;5028157;28;20210;-83
2023/03/01 12:19:03;;;;;;;11.27;8.30;;;;;;;;;;5030568;28;20249;-82
2023/03/01 12:21:34;;;;;;;10.03;7.30;;;;;;;;;;5030822;28;20230;-85
2023/03/01 12:24:11;;;;;;;11.20;7.77;;;;;;;;;;5030059;28;20749;-85
2023/03/01 12:26:44;;;;;;;11.17;7.43;;;;;;;;;;5030928;28;20207;-83
2023/03/01 12:29:22;;;;;;;13.23;8.70;;;;;;;;;;5030398;28;20241;-82
2023/03/01 12:32:02;;;;;;;11.03;7.57;;;;;;;;;;5023240;28;20597;-84
2023/03/01 12:34:34;;;;;;;10.03;8.07;;;;;;;;;;5016343;28;20234;-83
2023/03/01 12:37:12;;;;;;;13.23;9.27;;;;;;;;;;5032931;28;20273;-82
2023/03/01 12:39:45;;;;;;;8.67;6.80;;;;;;;;;;5034045;28;20238;-82
2023/03/01 12:42:19;;;;;;;8.20;7.13;;;;;;;;;;5033719;28;20206;-82
2023/03/01 12:44:55;;;;;;;9.47;6.87;;;;;;;;;;5033157;28;20605;-82
2023/03/01 12:47:28;;;;;;;8.03;7.00;;;;;;;;;;5034280;28;20209;-82
2023/03/01 12:49:56;;;;;;;8.67;6.70;;;;;;;;;;5034006;28;20226;-83
2023/03/01 12:52:26;;;;;;;9.57;6.47;;;;;;;;;;5026932;28;20215;-83
2023/03/01 12:54:53;;;;;;;9.37;6.70;;;;;;;;;;5027220;28;20234;-84
2023/03/01 12:57:29;;;;;;;8.83;6.50;;;;;;;;;;5033767;28;20717;-83
2023/03/01 13:00:07;;;;;;;7.57;6.33;;;;;;;;;;5032828;28;20296;-83
2023/03/01 13:02:36;;;;;;;11.37;6.33;;;;;;;;;;5033445;28;20191;-84
2023/03/01 13:05:10;;;;;;;8.10;5.73;;;;;;;;;;5033718;28;20603;-84
2023/03/01 13:07:40;;;;;;;8.37;6.53;;;;;;;;;;5017696;28;20654;-84
2023/03/01 13:10:18;;;;;;;10.10;6.30;;;;;;;;;;5033351;28;20231;-83
2023/03/01 13:12:52;;;;;;;7.43;6.30;;;;;;;;;;5033023;28;20210;-83
2023/03/01 13:15:32;;;;;;;9.57;6.93;;;;;;;;;;5033656;28;20202;-82
2023/03/01 13:18:01;;;;;;;8.13;6.33;;;;;;;;;;5032914;28;20234;-84
2023/03/01 13:20:31;;;;;;;8.63;7.13;;;;;;;;;;5033219;28;20234;-84
2023/03/01 13:23:02;;;;;;;10.37;6.17;;;;;;;;;;5032992;28;20314;-83
2023/03/01 13:25:29;;;;;;;8.40;6.00;;;;;;;;;;5033409;28;20218;-83
2023/03/01 13:28:26;;;;;;;7.57;6.23;;;;;;;;;;5032842;28;20595;-83
2023/03/01 13:30:53;;;;;;;8.13;6.43;;;;;;;;;;5033170;28;20257;-84
2023/03/01 13:33:36;;;;;;;7.60;6.17;;;;;;;;;;5032452;28;20714;-85
2023/03/01 13:36:03;;;;;;;8.43;5.90;;;;;;;;;;5031453;28;20206;-85
2023/03/01 13:38:40;;;;;;;8.30;6.03;;;;;;;;;;5032932;28;20234;-84
2023/03/01 13:41:08;;;;;;;8.90;5.30;;;;;;;;;;5033156;28;20226;-85
2023/03/01 13:43:37;;;;;;;6.70;5.60;;;;;;;;;;5032713;28;20230;-85
2023/03/01 13:46:10;;;;;;;7.23;6.20;;;;;;;;;;5034061;28;20584;-84
2023/03/01 13:48:39;;;;;;;8.07;5.50;;;;;;;;;;5035334;28;20317;-85
2023/03/01 13:51:08;;;;;;;7.40;5.60;;;;;;;;;;5036802;28;20223;-85
2023/03/01 13:53:36;;;;;;;7.07;5.80;;;;;;;;;;5033768;28;20721;-86
2023/03/01 13:56:08;;;;;;;7.43;6.10;;;;;;;;;;5034381;28;20218;-85
2023/03/01 13:58:45;;;;;;;6.50;5.67;;;;;;;;;;5032951;28;20681;-85
2023/03/01 14:01:23;;;;;;;5.50;5.00;;;;;;;;;;5033826;28;20681;-85
2023/03/01 14:03:50;;;;;;;6.43;5.40;;;;;;;;;;5033570;28;20787;-86
2023/03/01 14:06:21;;;;;;;7.60;5.80;;;;;;;;;;5033920;28;20705;-86
2023/03/01 14:08:50;;;;;;;7.50;5.30;;;;;;;;;;5033199;28;20234;-85
2023/03/01 14:11:34;;;;;;;11.30;5.57;;;;;;;;;;5033044;28;20223;-85
2023/03/01 14:14:11;;;;;;;5.60;4.93;;;;;;;;;;4993274;28;20230;-85
2023/03/01 14:16:44;;;;;;;6.90;5.77;;;;;;;;;;5033892;28;20210;-87
2023/03/01 14:19:17;;;;;;;6.00;4.90;;;;;;;;;;5033777;28;20230;-87
2023/03/01 14:21:44;;;;;;;7.37;5.70;;;;;;;;;;5034384;28;20238;-87
2023/03/01 14:24:18;;;;;;;6.07;5.47;;;;;;;;;;5033554;28;20234;-87
2023/03/01 14:26:45;;;;;;;6.77;5.53;;;;;;;;;;5034182;28;20190;-87
2023/03/01 14:29:24;;;;;;;7.70;5.17;;;;;;;;;;5033305;28;20721;-87
2023/03/01 14:31:53;;;;;;;7.07;5.70;;;;;;;;;;5034327;28;20234;-89
2023/03/01 14:34:21;;;;;;;6.00;5.33;;;;;;;;;;5034603;28;20317;-89
2023/03/01 14:36:51;;;;;;;7.63;5.63;;;;;;;;;;5034549;28;20573;-88
2023/03/01 14:39:19;;;;;;;6.90;5.47;;;;;;;;;;5034101;28;20238;-89
2023/03/01 14:41:46;;;;;;;5.97;5.20;;;;;;;;;;5034359;28;20641;-87